Flight Track Log - Related Links

Times and Time Zones

All times are in EDT time to prevent confusion due to time zone crossing. See the N78ML flight status page for this flight to view local times or setup timezone preferences in your user account.

Time Position Orientation Groundspeed Altitude Reporting Facility
EDT Latitude Longitude Course Direction KTS MPH feet Rate Location/Type
Tue 01:00:39 PM 34.4161 -119.8361 204° Southwest 86 99 300  Level Los Angeles Center
Tue 01:01:40 PM 34.3931 -119.8486 204° Southwest 101 116 1,100 750 Climbing Los Angeles Center
Tue 01:02:07 PM 34.3814 -119.8578 213° Southwest 119 137 1,400 700 Climbing Los Angeles Center
Tue 01:02:40 PM 34.3764 -119.8803 255° West 113 130 1,800 677 Climbing Los Angeles Center
Tue 01:03:09 PM 34.3733 -119.8961 257° West 133 153 2,100 806 Climbing Los Angeles Center
Tue 01:03:47 PM 34.3728 -119.9231 269° West 114 131 2,700 774 Climbing Los Angeles Center
Tue 01:04:11 PM 34.3694 -119.9342 250° West 123 142 2,900 655 Climbing Los Angeles Center
Tue 01:04:42 PM 34.3717 -119.9572 277° West 119 137 3,300 484 Climbing Los Angeles Center
Tue 01:05:13 PM 34.3706 -119.9758 266° West 122 140 3,400 455 Climbing Los Angeles Center
Tue 01:05:48 PM 34.3892 -120.0064 306° West 138 159 3,800 571 Climbing Los Angeles Center
Tue 01:06:16 PM 34.3972 -120.0244 298° West 141 162 4,000 545 Climbing Los Angeles Center
Tue 01:06:43 PM 34.4092 -120.0389 315° West 144 166 4,300 484 Climbing Los Angeles Center
Tue 01:07:18 PM 34.4319 -120.0378 North 151 174 4,500 393 Climbing Los Angeles Center
Tue 01:07:44 PM 34.4458 -120.0378 360° North 139 160 4,700 484 Climbing Los Angeles Center
Tue 01:08:20 PM 34.4697 -120.0389 358° North 142 163 5,000 455 Climbing Los Angeles Center
Tue 01:08:50 PM 34.4897 -120.0417 353° North 138 159 5,200 387 Climbing Los Angeles Center
Tue 01:09:22 PM 34.5078 -120.0411 North 139 160 5,400 358 Climbing Los Angeles Center
Tue 01:09:57 PM 34.5333 -120.0433 356° North 134 154 5,600 290 Climbing Los Angeles Center
Tue 01:10:24 PM 34.5439 -120.0447 354° North 133 153 5,700 337 Climbing Los Angeles Center
Tue 01:11:26 PM 34.5825 -120.0478 356° North 136 157 6,100 387 Climbing Los Angeles Center
Tue 01:12:28 PM 34.6233 -120.0492 358° North 139 160 6,500 387 Climbing Los Angeles Center
Tue 01:13:30 PM 34.6622 -120.0503 359° North 139 160 6,900 484 Climbing Los Angeles Center
Tue 01:14:32 PM 34.7072 -120.0542 356° North 136 157 7,500 528 Climbing Los Angeles Center
Tue 01:15:35 PM 34.7450 -120.0572 356° North 136 157 8,000 432 Climbing Los Angeles Center
Tue 01:16:37 PM 34.7817 -120.0592 358° North 133 153 8,400 194 Climbing Los Angeles Center
Tue 01:17:39 PM 34.8214 -120.0617 357° North 140 161 8,400  Level Los Angeles Center
Tue 01:18:41 PM 34.8600 -120.0647 356° North 141 162 8,400  Level Los Angeles Center
Tue 01:19:43 PM 34.9053 -120.0681 357° North 136 157 8,400  Level Los Angeles Center
Tue 01:20:45 PM 34.9442 -120.0703 357° North 139 160 8,400  Level Los Angeles Center
Tue 01:21:47 PM 34.9833 -120.0731 357° North 141 162 8,400  Level Los Angeles Center
Tue 01:22:49 PM 35.0239 -120.0758 357° North 145 167 8,400  Level Los Angeles Center
Tue 01:23:51 PM 35.0633 -120.0781 357° North 143 165 8,400  Level Los Angeles Center
Tue 01:24:54 PM 35.1033 -120.0811 356° North 143 165 8,400  Level Los Angeles Center
Tue 01:25:56 PM 35.1508 -120.0850 356° North 144 166 8,400  Level Los Angeles Center
Tue 01:26:58 PM 35.1894 -120.0878 357° North 141 162 8,400  Level Los Angeles Center
Tue 01:28:00 PM 35.2292 -120.0903 357° North 142 163 8,400 48 Level Los Angeles Center
Tue 01:29:02 PM 35.2697 -120.0936 356° North 145 167 8,500  Climbing Los Angeles Center
Tue 01:30:04 PM 35.3078 -120.0956 358° North 140 161 8,400 -48 Descending Los Angeles Center
Tue 01:31:06 PM 35.3547 -120.0997 356° North 140 161 8,400  Level Los Angeles Center
Tue 01:31:46 PM 35.3772 -120.1011 357° North 140 161 8,400  Level Oakland Center
Tue 01:32:48 PM 35.4158 -120.1039 357° North 140 161 8,400  Level Oakland Center
Tue 01:33:49 PM 35.4533 -120.1061 357° North 138 159 8,400  Level Oakland Center
Tue 01:34:50 PM 35.4908 -120.1094 356° North 136 157 8,400 49 Level Oakland Center
Tue 01:35:52 PM 35.5350 -120.1131 356° North 135 155 8,500 49 Climbing Oakland Center
Tue 01:36:53 PM 35.5703 -120.1161 356° North 131 151 8,500  Level Oakland Center
Tue 01:37:55 PM 35.6078 -120.1183 357° North 132 152 8,500  Level Oakland Center
Tue 01:38:56 PM 35.6453 -120.1208 357° North 134 154 8,500  Level Oakland Center
Tue 01:39:58 PM 35.6836 -120.1225 358° North 136 157 8,500  Level Oakland Center
Tue 01:40:59 PM 35.7217 -120.1244 358° North 137 158 8,500  Level Oakland Center
Tue 01:42:00 PM 35.7592 -120.1281 356° North 136 157 8,500  Level Oakland Center
Tue 01:43:01 PM 35.7975 -120.1314 356° North 137 158 8,500  Level Oakland Center
Tue 01:44:03 PM 35.8442 -120.1344 357° North 139 160 8,500  Level Oakland Center
Tue 01:45:04 PM 35.8828 -120.1364 358° North 139 160 8,500  Level Oakland Center
Tue 01:46:05 PM 35.9231 -120.1392 357° North 141 162 8,500  Level Oakland Center
Tue 01:47:07 PM 35.9614 -120.1422 356° North 140 161 8,500  Level Oakland Center
Tue 01:48:08 PM 35.9992 -120.1444 357° North 137 158 8,500  Level Oakland Center
Tue 01:49:10 PM 36.0378 -120.1439 North 138 159 8,500  Level Oakland Center
Tue 01:50:11 PM 36.0756 -120.1475 356° North 136 157 8,500  Level Oakland Center
Tue 01:51:12 PM 36.1133 -120.1506 356° North 136 157 8,500  Level Oakland Center
Tue 01:52:14 PM 36.1589 -120.1528 358° North 136 157 8,500 49 Level Oakland Center
Tue 01:53:15 PM 36.1967 -120.1564 356° North 137 158 8,600 49 Climbing Oakland Center
Tue 01:54:17 PM 36.2350 -120.1589 357° North 138 159 8,600  Level Oakland Center
Tue 01:55:18 PM 36.2733 -120.1619 356° North 138 159 8,600 -49 Level Oakland Center
Tue 01:56:20 PM 36.3117 -120.1647 357° North 138 159 8,500 -49 Descending Oakland Center
Tue 01:57:21 PM 36.3500 -120.1672 357° North 138 159 8,500  Level Oakland Center
Tue 01:58:22 PM 36.3881 -120.1711 355° North 138 159 8,500  Level Oakland Center
Tue 01:59:24 PM 36.4272 -120.1733 357° North 140 161 8,500  Level Oakland Center
Tue 02:00:25 PM 36.4739 -120.1769 356° North 142 163 8,500  Level Oakland Center
Tue 02:01:27 PM 36.5119 -120.1803 356° North 138 159 8,500  Level Oakland Center
Tue 02:02:28 PM 36.5503 -120.1831 357° North 139 160 8,500  Level Oakland Center
Tue 02:03:30 PM 36.5894 -120.1864 356° North 141 162 8,500  Level Oakland Center
Tue 02:04:31 PM 36.6283 -120.1900 356° North 140 161 8,500  Level Oakland Center
Tue 02:05:33 PM 36.6681 -120.1933 356° North 143 165 8,500  Level Oakland Center
Tue 02:06:34 PM 36.7081 -120.1956 357° North 143 165 8,500  Level Oakland Center
Tue 02:07:35 PM 36.7472 -120.1986 356° North 142 163 8,500  Level Oakland Center
Tue 02:08:37 PM 36.7864 -120.2019 356° North 142 163 8,500  Level Oakland Center
Tue 02:09:38 PM 36.8333 -120.2061 356° North 141 162 8,500  Level Oakland Center
Tue 02:10:40 PM 36.8717 -120.2086 357° North 141 162 8,500  Level Oakland Center
Tue 02:11:41 PM 36.9131 -120.2117 357° North 140 161 8,500  Level Oakland Center
Tue 02:12:43 PM 36.9506 -120.2147 356° North 139 160 8,500  Level Oakland Center
Tue 02:13:44 PM 36.9917 -120.2181 356° North 138 159 8,500  Level Oakland Center
Tue 02:14:45 PM 37.0294 -120.2219 355° North 138 159 8,500  Level Oakland Center
Tue 02:15:47 PM 37.0683 -120.2247 357° North 137 158 8,500  Level Oakland Center
Tue 02:16:48 PM 37.1081 -120.2286 356° North 141 162 8,500  Level Oakland Center
Tue 02:17:50 PM 37.1467 -120.2306 358° North 139 160 8,500  Level Oakland Center
Tue 02:18:51 PM 37.1869 -120.2347 355° North 144 166 8,500  Level Oakland Center
Tue 02:19:52 PM 37.2256 -120.2358 359° North 141 162 8,500  Level Oakland Center
Tue 02:20:54 PM 37.2661 -120.2386 357° North 146 168 8,500  Level Oakland Center
Tue 02:21:55 PM 37.3133 -120.2422 357° North 142 163 8,500  Level Oakland Center
Tue 02:22:57 PM 37.3519 -120.2492 352° North 146 168 8,500  Level Oakland Center
Tue 02:23:58 PM 37.3969 -120.2425 North 159 183 8,500  Level Oakland Center
Tue 02:24:59 PM 37.4358 -120.2453 357° North 147 169 8,500  Level Oakland Center
Tue 02:26:01 PM 37.4722 -120.2492 355° North 140 161 8,500  Level Oakland Center
Tue 02:27:02 PM 37.5119 -120.2533 355° North 139 160 8,500  Level Oakland Center
Tue 02:28:04 PM 37.5503 -120.2556 357° North 138 159 8,500  Level Oakland Center
Tue 02:30:06 PM 37.6275 -120.2650 354° North 138 159 8,500  Level Oakland Center
Tue 02:31:08 PM 37.6717 -120.2650 360° North 133 153 8,500  Level Oakland Center
Tue 02:32:09 PM 37.7106 -120.2689 355° North 137 158 8,500  Level Oakland Center
Tue 02:33:11 PM 37.7481 -120.2711 357° North 136 157 8,500  Level Oakland Center
Tue 02:34:12 PM 37.7853 -120.2758 354° North 136 157 8,500  Level Oakland Center
Tue 02:35:13 PM 37.8244 -120.2772 358° North 137 158 8,500  Level Oakland Center
Tue 02:36:15 PM 37.8628 -120.2808 356° North 139 160 8,500  Level Oakland Center
Tue 02:37:16 PM 37.9008 -120.2833 357° North 137 158 8,500  Level Oakland Center
Tue 02:38:17 PM 37.9392 -120.2867 356° North 135 155 8,500  Level Oakland Center
Tue 02:39:19 PM 37.9781 -120.2900 356° North 139 160 8,500  Level Oakland Center
Tue 02:40:20 PM 38.0278 -120.2931 357° North 146 168 8,500  Level Oakland Center
Tue 02:41:21 PM 38.0650 -120.2969 355° North 140 161 8,500  Level Oakland Center
Tue 02:42:23 PM 38.1042 -120.2994 357° North 139 160 8,500  Level Oakland Center
Tue 02:43:24 PM 38.1428 -120.3025 356° North 140 161 8,500  Level Oakland Center
Tue 02:44:25 PM 38.1819 -120.3061 356° North 140 161 8,500  Level Oakland Center
Tue 02:45:27 PM 38.2211 -120.3086 357° North 140 161 8,500  Level Oakland Center
Tue 02:46:28 PM 38.2611 -120.3111 357° North 142 163 8,500  Level Oakland Center
Tue 02:47:29 PM 38.3019 -120.3144 356° North 146 168 8,500  Level Oakland Center
Tue 02:48:30 PM 38.3422 -120.3178 356° North 145 167 8,500  Level Oakland Center
Tue 02:49:32 PM 38.3892 -120.3211 357° North 142 163 8,500  Level Oakland Center
Tue 02:50:33 PM 38.4292 -120.3244 356° North 142 163 8,500  Level Oakland Center
Tue 02:51:34 PM 38.4697 -120.3278 356° North 146 168 8,500  Level Oakland Center
Tue 02:52:35 PM 38.5100 -120.3306 357° North 145 167 8,500  Level Oakland Center
Tue 02:53:37 PM 38.5511 -120.3342 356° North 147 169 8,500  Level Oakland Center
Tue 02:54:38 PM 38.5908 -120.3375 356° North 145 167 8,500  Level Oakland Center
Tue 02:55:39 PM 38.6317 -120.3411 356° North 146 168 8,500  Level Oakland Center
Tue 02:56:40 PM 38.6708 -120.3431 358° North 144 166 8,500 49 Level Oakland Center
Tue 02:57:42 PM 38.7119 -120.3483 354° North 146 168 8,600  Climbing Oakland Center
Tue 02:58:43 PM 38.7528 -120.3544 353° North 146 168 8,500 -49 Descending Oakland Center
Tue 02:59:44 PM 38.8028 -120.3594 356° North 149 171 8,500  Level Oakland Center
Tue 03:00:45 PM 38.8444 -120.3586 North 151 174 8,500  Level Oakland Center
Tue 03:01:47 PM 38.8856 -120.3606 358° North 149 171 8,500 -49 Level Oakland Center
Tue 03:02:48 PM 38.9278 -120.3658 354° North 150 173 8,400  Descending Oakland Center
Tue 03:03:49 PM 38.9692 -120.3689 357° North 151 174 8,500 49 Climbing Oakland Center
Tue 03:04:50 PM 39.0114 -120.3717 357° North 152 175 8,500  Level Oakland Center
Tue 03:05:51 PM 39.0528 -120.3742 357° North 150 173 8,500  Level Oakland Center
Tue 03:06:53 PM 39.0942 -120.3764 358° North 149 171 8,500  Level Oakland Center
Tue 03:07:54 PM 39.1356 -120.3789 357° North 151 174 8,500  Level Oakland Center
Tue 03:08:55 PM 39.1775 -120.3847 354° North 150 173 8,500 98 Level Oakland Center
Tue 03:09:56 PM 39.2283 -120.3881 357° North 154 177 8,700 98 Climbing Oakland Center
Tue 03:10:58 PM 39.2694 -120.3894 359° North 150 173 8,700 -49 Level Oakland Center
Tue 03:11:59 PM 39.3064 -120.3650 27° Northeast 154 177 8,600 -98 Descending Oakland Center

Login

Don't have an account? Register now (free) for customized features, flight alerts, and more!